sensor_id;sensor_type;location;lat;lon;timestamp;temperature;humidity
12602;DHT22;30282;16.436;99.370;2023-12-20T00:01:18;22.00;99.90
12602;DHT22;30282;16.436;99.370;2023-12-20T00:03:48;21.90;99.90
12602;DHT22;30282;16.436;99.370;2023-12-20T00:06:18;21.80;99.90
12602;DHT22;30282;16.436;99.370;2023-12-20T00:08:47;21.90;99.90
12602;DHT22;30282;16.436;99.370;2023-12-20T00:11:16;21.90;99.90
12602;DHT22;30282;16.436;99.370;2023-12-20T00:13:48;21.90;99.90
12602;DHT22;30282;16.436;99.370;2023-12-20T00:16:17;21.90;99.90
12602;DHT22;30282;16.436;99.370;2023-12-20T00:18:51;21.90;99.90
12602;DHT22;30282;16.436;99.370;2023-12-20T00:21:22;22.00;99.90
12602;DHT22;30282;16.436;99.370;2023-12-20T00:23:51;22.00;99.90
12602;DHT22;30282;16.436;99.370;2023-12-20T00:26:20;22.00;99.90
12602;DHT22;30282;16.436;99.370;2023-12-20T00:28:52;22.10;99.90
12602;DHT22;30282;16.436;99.370;2023-12-20T00:31:22;22.30;99.90
12602;DHT22;30282;16.436;99.370;2023-12-20T00:33:53;22.40;99.90
12602;DHT22;30282;16.436;99.370;2023-12-20T00:36:22;22.50;99.90
12602;DHT22;30282;16.436;99.370;2023-12-20T00:38:51;22.70;99.90
12602;DHT22;30282;16.436;99.370;2023-12-20T00:41:20;22.80;99.90
12602;DHT22;30282;16.436;99.370;2023-12-20T00:43:49;22.90;99.90
12602;DHT22;30282;16.436;99.370;2023-12-20T00:46:18;23.00;99.90
12602;DHT22;30282;16.436;99.370;2023-12-20T00:48:47;23.10;99.90
12602;DHT22;30282;16.436;99.370;2023-12-20T00:51:18;23.30;99.90
12602;DHT22;30282;16.436;99.370;2023-12-20T00:53:47;23.30;99.90
12602;DHT22;30282;16.436;99.370;2023-12-20T00:56:16;23.40;99.90
12602;DHT22;30282;16.436;99.370;2023-12-20T00:58:45;23.40;99.90
12602;DHT22;30282;16.436;99.370;2023-12-20T01:01:15;23.50;99.90
12602;DHT22;30282;16.436;99.370;2023-12-20T01:03:44;23.60;99.90
12602;DHT22;30282;16.436;99.370;2023-12-20T01:06:13;23.60;99.90
12602;DHT22;30282;16.436;99.370;2023-12-20T01:08:44;23.70;99.90
12602;DHT22;30282;16.436;99.370;2023-12-20T01:11:13;23.80;99.90
12602;DHT22;30282;16.436;99.370;2023-12-20T01:13:43;23.90;99.90
12602;DHT22;30282;16.436;99.370;2023-12-20T01:16:12;24.10;99.90
12602;DHT22;30282;16.436;99.370;2023-12-20T01:18:41;24.20;99.90
12602;DHT22;30282;16.436;99.370;2023-12-20T01:21:10;24.30;99.90
12602;DHT22;30282;16.436;99.370;2023-12-20T01:23:39;24.30;99.90
12602;DHT22;30282;16.436;99.370;2023-12-20T01:26:10;24.40;99.90
12602;DHT22;30282;16.436;99.370;2023-12-20T01:28:39;24.50;99.90
12602;DHT22;30282;16.436;99.370;2023-12-20T01:31:08;24.70;99.90
12602;DHT22;30282;16.436;99.370;2023-12-20T01:33:37;24.80;99.90
12602;DHT22;30282;16.436;99.370;2023-12-20T01:36:06;24.80;99.90
12602;DHT22;30282;16.436;99.370;2023-12-20T01:38:35;25.00;99.90
12602;DHT22;30282;16.436;99.370;2023-12-20T01:41:05;25.10;99.90
12602;DHT22;30282;16.436;99.370;2023-12-20T01:43:35;25.30;99.90
12602;DHT22;30282;16.436;99.370;2023-12-20T01:46:05;25.30;99.90
12602;DHT22;30282;16.436;99.370;2023-12-20T01:48:34;25.40;99.90
12602;DHT22;30282;16.436;99.370;2023-12-20T01:51:10;25.50;99.90
12602;DHT22;30282;16.436;99.370;2023-12-20T01:53:40;25.60;99.90
12602;DHT22;30282;16.436;99.370;2023-12-20T01:56:10;25.80;99.90
12602;DHT22;30282;16.436;99.370;2023-12-20T01:58:44;25.90;99.90
12602;DHT22;30282;16.436;99.370;2023-12-20T02:01:14;26.00;99.90
12602;DHT22;30282;16.436;99.370;2023-12-20T02:03:43;26.10;99.90
12602;DHT22;30282;16.436;99.370;2023-12-20T02:06:12;26.10;99.90
12602;DHT22;30282;16.436;99.370;2023-12-20T02:08:42;26.30;99.90
12602;DHT22;30282;16.436;99.370;2023-12-20T02:11:11;26.50;99.90
12602;DHT22;30282;16.436;99.370;2023-12-20T02:13:42;26.70;99.90
12602;DHT22;30282;16.436;99.370;2023-12-20T02:16:11;26.70;99.90
12602;DHT22;30282;16.436;99.370;2023-12-20T02:18:40;26.80;99.90
12602;DHT22;30282;16.436;99.370;2023-12-20T02:21:11;26.90;99.90
12602;DHT22;30282;16.436;99.370;2023-12-20T02:23:42;27.00;99.90
12602;DHT22;30282;16.436;99.370;2023-12-20T02:26:11;27.20;99.90
12602;DHT22;30282;16.436;99.370;2023-12-20T02:28:41;27.50;99.90
12602;DHT22;30282;16.436;99.370;2023-12-20T02:31:11;27.70;99.90
12602;DHT22;30282;16.436;99.370;2023-12-20T02:33:40;27.90;99.90
12602;DHT22;30282;16.436;99.370;2023-12-20T02:36:09;28.20;99.90
12602;DHT22;30282;16.436;99.370;2023-12-20T02:38:38;28.30;99.90
12602;DHT22;30282;16.436;99.370;2023-12-20T02:41:08;28.50;99.90
12602;DHT22;30282;16.436;99.370;2023-12-20T02:43:37;28.70;99.90
12602;DHT22;30282;16.436;99.370;2023-12-20T02:46:06;28.70;99.90
12602;DHT22;30282;16.436;99.370;2023-12-20T02:48:36;28.80;99.90
12602;DHT22;30282;16.436;99.370;2023-12-20T02:51:12;28.50;99.90
12602;DHT22;30282;16.436;99.370;2023-12-20T02:53:42;28.30;99.90
12602;DHT22;30282;16.436;99.370;2023-12-20T02:56:12;28.40;99.90
12602;DHT22;30282;16.436;99.370;2023-12-20T02:58:42;28.80;99.90
12602;DHT22;30282;16.436;99.370;2023-12-20T03:01:11;29.10;99.90
12602;DHT22;30282;16.436;99.370;2023-12-20T03:03:46;29.20;99.90
12602;DHT22;30282;16.436;99.370;2023-12-20T03:06:17;29.20;99.90
12602;DHT22;30282;16.436;99.370;2023-12-20T03:08:46;29.30;99.90
12602;DHT22;30282;16.436;99.370;2023-12-20T03:11:27;29.50;99.90
12602;DHT22;30282;16.436;99.370;2023-12-20T03:13:56;29.60;99.90
12602;DHT22;30282;16.436;99.370;2023-12-20T03:16:35;29.90;99.90
12602;DHT22;30282;16.436;99.370;2023-12-20T03:19:07;30.10;99.90
12602;DHT22;30282;16.436;99.370;2023-12-20T03:21:36;30.30;99.90
12602;DHT22;30282;16.436;99.370;2023-12-20T03:24:05;30.10;99.90
12602;DHT22;30282;16.436;99.370;2023-12-20T03:26:36;30.00;99.90
12602;DHT22;30282;16.436;99.370;2023-12-20T03:29:05;30.00;99.90
12602;DHT22;30282;16.436;99.370;2023-12-20T03:31:34;30.00;99.90
12602;DHT22;30282;16.436;99.370;2023-12-20T03:34:03;30.00;99.90
12602;DHT22;30282;16.436;99.370;2023-12-20T03:36:32;30.00;99.90
12602;DHT22;30282;16.436;99.370;2023-12-20T03:39:01;30.20;99.90
12602;DHT22;30282;16.436;99.370;2023-12-20T03:41:30;30.30;99.90
12602;DHT22;30282;16.436;99.370;2023-12-20T03:44:04;30.60;99.90
12602;DHT22;30282;16.436;99.370;2023-12-20T03:46:41;30.70;99.90
12602;DHT22;30282;16.436;99.370;2023-12-20T03:49:13;31.10;99.90
12602;DHT22;30282;16.436;99.370;2023-12-20T03:51:46;31.40;99.90
12602;DHT22;30282;16.436;99.370;2023-12-20T03:54:15;31.50;99.90
12602;DHT22;30282;16.436;99.370;2023-12-20T03:56:44;31.30;99.90
12602;DHT22;30282;16.436;99.370;2023-12-20T03:59:15;31.30;99.90
12602;DHT22;30282;16.436;99.370;2023-12-20T04:01:44;31.30;99.90
12602;DHT22;30282;16.436;99.370;2023-12-20T04:04:13;31.30;99.90
12602;DHT22;30282;16.436;99.370;2023-12-20T04:06:42;31.40;99.90
12602;DHT22;30282;16.436;99.370;2023-12-20T04:09:12;31.20;99.90
12602;DHT22;30282;16.436;99.370;2023-12-20T04:11:41;31.20;99.90
12602;DHT22;30282;16.436;99.370;2023-12-20T04:14:10;31.60;99.90
12602;DHT22;30282;16.436;99.370;2023-12-20T04:16:41;32.00;99.90
12602;DHT22;30282;16.436;99.370;2023-12-20T04:19:10;32.10;99.90
12602;DHT22;30282;16.436;99.370;2023-12-20T04:21:39;32.30;99.90
12602;DHT22;30282;16.436;99.370;2023-12-20T04:24:08;32.40;99.90
12602;DHT22;30282;16.436;99.370;2023-12-20T04:26:37;32.60;99.90
12602;DHT22;30282;16.436;99.370;2023-12-20T04:29:06;32.80;99.90
12602;DHT22;30282;16.436;99.370;2023-12-20T04:31:35;32.90;99.90
12602;DHT22;30282;16.436;99.370;2023-12-20T04:34:06;33.10;99.90
12602;DHT22;30282;16.436;99.370;2023-12-20T04:36:35;33.20;99.90
12602;DHT22;30282;16.436;99.370;2023-12-20T04:39:04;33.20;99.90
12602;DHT22;30282;16.436;99.370;2023-12-20T04:41:36;33.20;99.90
12602;DHT22;30282;16.436;99.370;2023-12-20T04:44:07;32.90;99.90
12602;DHT22;30282;16.436;99.370;2023-12-20T04:46:38;32.90;99.90
12602;DHT22;30282;16.436;99.370;2023-12-20T04:49:09;33.30;99.90
12602;DHT22;30282;16.436;99.370;2023-12-20T04:51:38;33.50;99.90
12602;DHT22;30282;16.436;99.370;2023-12-20T04:54:07;33.70;99.90
12602;DHT22;30282;16.436;99.370;2023-12-20T04:56:37;33.70;99.90
12602;DHT22;30282;16.436;99.370;2023-12-20T04:59:06;33.80;99.90
12602;DHT22;30282;16.436;99.370;2023-12-20T05:01:35;33.80;99.90
12602;DHT22;30282;16.436;99.370;2023-12-20T05:04:04;33.90;99.90
12602;DHT22;30282;16.436;99.370;2023-12-20T05:06:35;34.10;99.90
12602;DHT22;30282;16.436;99.370;2023-12-20T05:09:04;34.10;99.90
12602;DHT22;30282;16.436;99.370;2023-12-20T05:11:33;34.20;99.90
12602;DHT22;30282;16.436;99.370;2023-12-20T05:14:02;34.30;99.90
12602;DHT22;30282;16.436;99.370;2023-12-20T05:16:31;34.10;99.90
12602;DHT22;30282;16.436;99.370;2023-12-20T05:19:00;34.20;99.90
12602;DHT22;30282;16.436;99.370;2023-12-20T05:21:35;34.00;99.90
12602;DHT22;30282;16.436;99.370;2023-12-20T05:24:04;33.90;99.90
12602;DHT22;30282;16.436;99.370;2023-12-20T05:26:33;34.10;99.90
12602;DHT22;30282;16.436;99.370;2023-12-20T05:29:02;34.50;99.90
12602;DHT22;30282;16.436;99.370;2023-12-20T05:31:32;34.80;99.90
12602;DHT22;30282;16.436;99.370;2023-12-20T05:34:01;35.00;99.90
12602;DHT22;30282;16.436;99.370;2023-12-20T05:36:30;35.00;99.90
12602;DHT22;30282;16.436;99.370;2023-12-20T05:39:01;34.70;99.90
12602;DHT22;30282;16.436;99.370;2023-12-20T05:41:30;34.50;99.90
12602;DHT22;30282;16.436;99.370;2023-12-20T05:43:59;34.10;99.90
12602;DHT22;30282;16.436;99.370;2023-12-20T05:46:28;33.70;99.90
12602;DHT22;30282;16.436;99.370;2023-12-20T05:48:57;33.00;99.90
12602;DHT22;30282;16.436;99.370;2023-12-20T05:51:26;32.30;99.90
12602;DHT22;30282;16.436;99.370;2023-12-20T05:53:55;31.70;99.90
12602;DHT22;30282;16.436;99.370;2023-12-20T05:56:26;31.30;99.90
12602;DHT22;30282;16.436;99.370;2023-12-20T05:58:55;31.20;99.90
12602;DHT22;30282;16.436;99.370;2023-12-20T06:01:25;31.50;99.90
12602;DHT22;30282;16.436;99.370;2023-12-20T06:03:54;32.00;99.90
12602;DHT22;30282;16.436;99.370;2023-12-20T06:06:24;32.10;99.90
12602;DHT22;30282;16.436;99.370;2023-12-20T06:08:53;32.60;99.90
12602;DHT22;30282;16.436;99.370;2023-12-20T06:11:22;32.80;99.90
12602;DHT22;30282;16.436;99.370;2023-12-20T06:13:53;32.70;99.90
12602;DHT22;30282;16.436;99.370;2023-12-20T06:16:22;33.00;99.90
12602;DHT22;30282;16.436;99.370;2023-12-20T06:18:51;33.30;99.90
12602;DHT22;30282;16.436;99.370;2023-12-20T06:21:20;33.20;99.90
12602;DHT22;30282;16.436;99.370;2023-12-20T06:23:49;33.40;99.90
12602;DHT22;30282;16.436;99.370;2023-12-20T06:26:18;33.40;99.90
12602;DHT22;30282;16.436;99.370;2023-12-20T06:28:47;33.30;99.90
12602;DHT22;30282;16.436;99.370;2023-12-20T06:31:18;33.50;99.90
12602;DHT22;30282;16.436;99.370;2023-12-20T06:33:47;33.50;99.90
12602;DHT22;30282;16.436;99.370;2023-12-20T06:36:24;33.50;99.90
12602;DHT22;30282;16.436;99.370;2023-12-20T06:38:53;33.50;99.90
12602;DHT22;30282;16.436;99.370;2023-12-20T06:41:22;33.60;99.90
12602;DHT22;30282;16.436;99.370;2023-12-20T06:43:51;33.70;99.90
12602;DHT22;30282;16.436;99.370;2023-12-20T06:46:22;33.70;99.90
12602;DHT22;30282;16.436;99.370;2023-12-20T06:48:51;33.80;99.90
12602;DHT22;30282;16.436;99.370;2023-12-20T06:51:21;33.80;99.90
12602;DHT22;30282;16.436;99.370;2023-12-20T06:53:52;33.50;99.90
12602;DHT22;30282;16.436;99.370;2023-12-20T06:56:21;33.20;99.90
12602;DHT22;30282;16.436;99.370;2023-12-20T06:58:50;33.30;99.90
12602;DHT22;30282;16.436;99.370;2023-12-20T07:01:21;33.30;99.90
12602;DHT22;30282;16.436;99.370;2023-12-20T07:03:51;33.30;99.90
12602;DHT22;30282;16.436;99.370;2023-12-20T07:06:20;33.30;99.90
12602;DHT22;30282;16.436;99.370;2023-12-20T07:08:49;33.10;99.90
12602;DHT22;30282;16.436;99.370;2023-12-20T07:11:18;33.10;99.90
12602;DHT22;30282;16.436;99.370;2023-12-20T07:13:47;33.10;99.90
12602;DHT22;30282;16.436;99.370;2023-12-20T07:16:16;33.20;99.90
12602;DHT22;30282;16.436;99.370;2023-12-20T07:18:47;33.10;99.90
12602;DHT22;30282;16.436;99.370;2023-12-20T07:21:16;33.20;99.90
12602;DHT22;30282;16.436;99.370;2023-12-20T07:23:47;33.20;99.90
12602;DHT22;30282;16.436;99.370;2023-12-20T07:26:17;33.20;99.90
12602;DHT22;30282;16.436;99.370;2023-12-20T07:28:46;33.10;99.90
12602;DHT22;30282;16.436;99.370;2023-12-20T07:31:16;33.10;99.90
12602;DHT22;30282;16.436;99.370;2023-12-20T07:33:47;33.20;99.90
12602;DHT22;30282;16.436;99.370;2023-12-20T07:36:16;33.30;99.90
12602;DHT22;30282;16.436;99.370;2023-12-20T07:38:45;33.30;99.90
12602;DHT22;30282;16.436;99.370;2023-12-20T07:41:14;33.20;99.90
12602;DHT22;30282;16.436;99.370;2023-12-20T07:43:44;33.10;99.90
12602;DHT22;30282;16.436;99.370;2023-12-20T07:46:13;33.10;99.90
12602;DHT22;30282;16.436;99.370;2023-12-20T07:48:42;33.20;99.90
12602;DHT22;30282;16.436;99.370;2023-12-20T07:51:17;33.30;99.90
12602;DHT22;30282;16.436;99.370;2023-12-20T07:53:47;33.20;99.90
12602;DHT22;30282;16.436;99.370;2023-12-20T07:56:17;33.30;99.90
12602;DHT22;30282;16.436;99.370;2023-12-20T07:58:47;33.30;99.90
12602;DHT22;30282;16.436;99.370;2023-12-20T08:01:17;33.20;99.90
12602;DHT22;30282;16.436;99.370;2023-12-20T08:03:47;33.10;99.90
12602;DHT22;30282;16.436;99.370;2023-12-20T08:06:18;33.00;99.90
12602;DHT22;30282;16.436;99.370;2023-12-20T08:08:47;32.70;99.90
12602;DHT22;30282;16.436;99.370;2023-12-20T08:11:16;32.70;99.90
12602;DHT22;30282;16.436;99.370;2023-12-20T08:13:45;32.70;99.90
12602;DHT22;30282;16.436;99.370;2023-12-20T08:16:14;32.80;99.90
12602;DHT22;30282;16.436;99.370;2023-12-20T08:18:44;32.70;99.90
12602;DHT22;30282;16.436;99.370;2023-12-20T08:21:13;32.90;99.90
12602;DHT22;30282;16.436;99.370;2023-12-20T08:23:44;32.90;99.90
12602;DHT22;30282;16.436;99.370;2023-12-20T08:26:13;33.00;99.90
12602;DHT22;30282;16.436;99.370;2023-12-20T08:28:42;33.10;99.90
12602;DHT22;30282;16.436;99.370;2023-12-20T08:31:21;33.00;99.90
12602;DHT22;30282;16.436;99.370;2023-12-20T08:33:50;32.80;99.90
12602;DHT22;30282;16.436;99.370;2023-12-20T08:36:20;32.70;99.90
12602;DHT22;30282;16.436;99.370;2023-12-20T08:38:54;32.80;99.90
12602;DHT22;30282;16.436;99.370;2023-12-20T08:41:23;32.90;99.90
12602;DHT22;30282;16.436;99.370;2023-12-20T08:43:52;32.90;99.90
12602;DHT22;30282;16.436;99.370;2023-12-20T08:46:21;32.90;99.90
12602;DHT22;30282;16.436;99.370;2023-12-20T08:48:50;32.70;99.90
12602;DHT22;30282;16.436;99.370;2023-12-20T08:51:20;32.70;99.90
12602;DHT22;30282;16.436;99.370;2023-12-20T08:53:50;32.70;99.90
12602;DHT22;30282;16.436;99.370;2023-12-20T08:56:21;32.70;99.90
12602;DHT22;30282;16.436;99.370;2023-12-20T08:58:50;32.70;99.90
12602;DHT22;30282;16.436;99.370;2023-12-20T09:01:19;32.60;99.90
12602;DHT22;30282;16.436;99.370;2023-12-20T09:03:48;32.60;99.90
12602;DHT22;30282;16.436;99.370;2023-12-20T09:06:17;32.80;99.90
12602;DHT22;30282;16.436;99.370;2023-12-20T09:08:46;32.90;99.90
12602;DHT22;30282;16.436;99.370;2023-12-20T09:11:15;33.00;99.90
12602;DHT22;30282;16.436;99.370;2023-12-20T09:13:46;32.90;99.90
12602;DHT22;30282;16.436;99.370;2023-12-20T09:16:15;32.90;99.90
12602;DHT22;30282;16.436;99.370;2023-12-20T09:18:44;33.00;99.90
12602;DHT22;30282;16.436;99.370;2023-12-20T09:21:13;33.00;99.90
12602;DHT22;30282;16.436;99.370;2023-12-20T09:23:45;32.80;99.90
12602;DHT22;30282;16.436;99.370;2023-12-20T09:26:16;32.80;99.90
12602;DHT22;30282;16.436;99.370;2023-12-20T09:28:47;32.60;99.90
12602;DHT22;30282;16.436;99.370;2023-12-20T09:31:16;32.50;99.90
12602;DHT22;30282;16.436;99.370;2023-12-20T09:33:45;32.30;99.90
12602;DHT22;30282;16.436;99.370;2023-12-20T09:36:14;32.30;99.90
12602;DHT22;30282;16.436;99.370;2023-12-20T09:38:46;32.20;99.90
12602;DHT22;30282;16.436;99.370;2023-12-20T09:41:15;32.10;99.90
12602;DHT22;30282;16.436;99.370;2023-12-20T09:43:46;32.00;99.90
12602;DHT22;30282;16.436;99.370;2023-12-20T09:46:20;32.00;99.90
12602;DHT22;30282;16.436;99.370;2023-12-20T09:48:53;31.80;99.90
12602;DHT22;30282;16.436;99.370;2023-12-20T09:51:23;31.80;99.90
12602;DHT22;30282;16.436;99.370;2023-12-20T09:53:55;31.90;99.90
12602;DHT22;30282;16.436;99.370;2023-12-20T09:56:25;31.90;99.90
12602;DHT22;30282;16.436;99.370;2023-12-20T09:58:58;31.80;99.90
12602;DHT22;30282;16.436;99.370;2023-12-20T10:01:29;31.80;99.90
12602;DHT22;30282;16.436;99.370;2023-12-20T10:04:00;31.70;99.90
12602;DHT22;30282;16.436;99.370;2023-12-20T10:06:29;31.70;99.90
12602;DHT22;30282;16.436;99.370;2023-12-20T10:08:58;31.70;99.90
12602;DHT22;30282;16.436;99.370;2023-12-20T10:11:27;31.60;99.90
12602;DHT22;30282;16.436;99.370;2023-12-20T10:14:01;31.40;99.90
12602;DHT22;30282;16.436;99.370;2023-12-20T10:16:31;31.40;99.90
12602;DHT22;30282;16.436;99.370;2023-12-20T10:19:01;31.30;99.90
12602;DHT22;30282;16.436;99.370;2023-12-20T10:21:30;31.20;99.90
12602;DHT22;30282;16.436;99.370;2023-12-20T10:23:59;31.20;99.90
12602;DHT22;30282;16.436;99.370;2023-12-20T10:26:29;31.10;99.90
12602;DHT22;30282;16.436;99.370;2023-12-20T10:29:02;31.00;99.90
12602;DHT22;30282;16.436;99.370;2023-12-20T10:31:33;30.90;99.90
12602;DHT22;30282;16.436;99.370;2023-12-20T10:34:03;30.70;99.90
12602;DHT22;30282;16.436;99.370;2023-12-20T10:36:33;30.70;99.90
12602;DHT22;30282;16.436;99.370;2023-12-20T10:39:03;30.60;99.90
12602;DHT22;30282;16.436;99.370;2023-12-20T10:41:34;30.60;99.90
12602;DHT22;30282;16.436;99.370;2023-12-20T10:44:11;30.50;99.90
12602;DHT22;30282;16.436;99.370;2023-12-20T10:46:41;30.40;99.90
12602;DHT22;30282;16.436;99.370;2023-12-20T10:49:17;30.40;99.90
12602;DHT22;30282;16.436;99.370;2023-12-20T10:51:48;30.30;99.90
12602;DHT22;30282;16.436;99.370;2023-12-20T10:54:18;30.20;99.90
12602;DHT22;30282;16.436;99.370;2023-12-20T10:56:47;30.10;99.90
12602;DHT22;30282;16.436;99.370;2023-12-20T10:59:25;30.10;99.90
12602;DHT22;30282;16.436;99.370;2023-12-20T11:01:56;29.90;99.90
12602;DHT22;30282;16.436;99.370;2023-12-20T11:04:31;30.00;99.90
12602;DHT22;30282;16.436;99.370;2023-12-20T11:07:12;30.00;99.90
12602;DHT22;30282;16.436;99.370;2023-12-20T11:09:51;30.00;99.90
12602;DHT22;30282;16.436;99.370;2023-12-20T11:12:25;30.00;99.90
12602;DHT22;30282;16.436;99.370;2023-12-20T11:14:59;29.90;99.90
12602;DHT22;30282;16.436;99.370;2023-12-20T11:17:32;29.80;99.90
12602;DHT22;30282;16.436;99.370;2023-12-20T11:20:08;29.70;99.90
12602;DHT22;30282;16.436;99.370;2023-12-20T11:22:39;29.70;99.90
12602;DHT22;30282;16.436;99.370;2023-12-20T11:25:09;29.60;99.90
12602;DHT22;30282;16.436;99.370;2023-12-20T11:27:42;29.60;99.90
12602;DHT22;30282;16.436;99.370;2023-12-20T11:30:18;29.60;99.90
12602;DHT22;30282;16.436;99.370;2023-12-20T11:32:49;29.60;99.90
12602;DHT22;30282;16.436;99.370;2023-12-20T11:35:20;29.60;99.90
12602;DHT22;30282;16.436;99.370;2023-12-20T11:37:54;29.60;99.90
12602;DHT22;30282;16.436;99.370;2023-12-20T11:40:26;29.50;99.90
12602;DHT22;30282;16.436;99.370;2023-12-20T11:42:56;29.60;99.90
12602;DHT22;30282;16.436;99.370;2023-12-20T11:45:26;29.50;99.90
12602;DHT22;30282;16.436;99.370;2023-12-20T11:47:57;29.50;99.90
12602;DHT22;30282;16.436;99.370;2023-12-20T11:50:26;29.50;99.90
12602;DHT22;30282;16.436;99.370;2023-12-20T11:52:55;29.40;99.90
12602;DHT22;30282;16.436;99.370;2023-12-20T11:55:25;29.30;99.90
12602;DHT22;30282;16.436;99.370;2023-12-20T11:57:54;29.30;99.90
12602;DHT22;30282;16.436;99.370;2023-12-20T12:00:23;29.20;99.90
12602;DHT22;30282;16.436;99.370;2023-12-20T12:02:58;29.20;99.90
12602;DHT22;30282;16.436;99.370;2023-12-20T12:05:31;29.20;99.90
12602;DHT22;30282;16.436;99.370;2023-12-20T12:08:00;29.20;99.90
12602;DHT22;30282;16.436;99.370;2023-12-20T12:10:30;29.10;99.90
12602;DHT22;30282;16.436;99.370;2023-12-20T12:12:59;29.00;99.90
12602;DHT22;30282;16.436;99.370;2023-12-20T12:15:30;28.90;99.90
12602;DHT22;30282;16.436;99.370;2023-12-20T12:18:00;28.90;99.90
12602;DHT22;30282;16.436;99.370;2023-12-20T12:20:30;28.90;99.90
12602;DHT22;30282;16.436;99.370;2023-12-20T12:22:59;28.90;99.90
12602;DHT22;30282;16.436;99.370;2023-12-20T12:25:30;28.90;99.90
12602;DHT22;30282;16.436;99.370;2023-12-20T12:27:59;28.90;99.90
12602;DHT22;30282;16.436;99.370;2023-12-20T12:30:28;28.80;99.90
12602;DHT22;30282;16.436;99.370;2023-12-20T12:32:59;28.70;99.90
12602;DHT22;30282;16.436;99.370;2023-12-20T12:35:28;28.80;99.90
12602;DHT22;30282;16.436;99.370;2023-12-20T12:37:59;28.80;99.90
12602;DHT22;30282;16.436;99.370;2023-12-20T12:40:34;28.70;99.90
12602;DHT22;30282;16.436;99.370;2023-12-20T12:43:04;28.60;99.90
12602;DHT22;30282;16.436;99.370;2023-12-20T12:45:33;28.60;99.90
12602;DHT22;30282;16.436;99.370;2023-12-20T12:48:05;28.50;99.90
12602;DHT22;30282;16.436;99.370;2023-12-20T12:50:34;28.50;99.90
12602;DHT22;30282;16.436;99.370;2023-12-20T12:53:03;28.50;99.90
12602;DHT22;30282;16.436;99.370;2023-12-20T12:55:34;28.40;99.90
12602;DHT22;30282;16.436;99.370;2023-12-20T12:58:03;28.20;99.90
12602;DHT22;30282;16.436;99.370;2023-12-20T13:00:33;28.10;99.90
12602;DHT22;30282;16.436;99.370;2023-12-20T13:03:04;28.10;99.90
12602;DHT22;30282;16.436;99.370;2023-12-20T13:05:33;28.10;99.90
12602;DHT22;30282;16.436;99.370;2023-12-20T13:08:02;28.10;99.90
12602;DHT22;30282;16.436;99.370;2023-12-20T13:10:31;28.10;99.90
12602;DHT22;30282;16.436;99.370;2023-12-20T13:13:01;28.10;99.90
12602;DHT22;30282;16.436;99.370;2023-12-20T13:15:30;28.10;99.90
12602;DHT22;30282;16.436;99.370;2023-12-20T13:17:59;28.10;99.90
12602;DHT22;30282;16.436;99.370;2023-12-20T13:20:30;28.10;99.90
12602;DHT22;30282;16.436;99.370;2023-12-20T13:23:02;28.10;99.90
12602;DHT22;30282;16.436;99.370;2023-12-20T13:25:36;28.00;99.90
12602;DHT22;30282;16.436;99.370;2023-12-20T13:28:08;28.00;99.90
12602;DHT22;30282;16.436;99.370;2023-12-20T13:30:44;27.90;99.90
12602;DHT22;30282;16.436;99.370;2023-12-20T13:33:13;27.90;99.90
12602;DHT22;30282;16.436;99.370;2023-12-20T13:35:52;27.60;99.90
12602;DHT22;30282;16.436;99.370;2023-12-20T13:38:38;27.50;99.90
12602;DHT22;30282;16.436;99.370;2023-12-20T13:41:07;27.40;99.90
12602;DHT22;30282;16.436;99.370;2023-12-20T13:43:37;27.30;99.90
12602;DHT22;30282;16.436;99.370;2023-12-20T13:46:06;27.20;99.90
12602;DHT22;30282;16.436;99.370;2023-12-20T13:48:36;27.20;99.90
12602;DHT22;30282;16.436;99.370;2023-12-20T13:51:09;27.20;99.90
12602;DHT22;30282;16.436;99.370;2023-12-20T13:53:38;27.30;99.90
12602;DHT22;30282;16.436;99.370;2023-12-20T13:56:08;27.20;99.90
12602;DHT22;30282;16.436;99.370;2023-12-20T13:58:37;27.20;99.90
12602;DHT22;30282;16.436;99.370;2023-12-20T14:01:06;27.20;99.90
12602;DHT22;30282;16.436;99.370;2023-12-20T14:03:35;27.10;99.90
12602;DHT22;30282;16.436;99.370;2023-12-20T14:06:06;27.00;99.90
12602;DHT22;30282;16.436;99.370;2023-12-20T14:08:36;26.80;99.90
12602;DHT22;30282;16.436;99.370;2023-12-20T14:11:05;26.70;99.90
12602;DHT22;30282;16.436;99.370;2023-12-20T14:13:34;26.80;99.90
12602;DHT22;30282;16.436;99.370;2023-12-20T14:16:09;26.80;99.90
12602;DHT22;30282;16.436;99.370;2023-12-20T14:18:44;26.80;99.90
12602;DHT22;30282;16.436;99.370;2023-12-20T14:21:16;26.90;99.90
12602;DHT22;30282;16.436;99.370;2023-12-20T14:23:48;26.90;99.90
12602;DHT22;30282;16.436;99.370;2023-12-20T14:26:18;26.90;99.90
12602;DHT22;30282;16.436;99.370;2023-12-20T14:28:47;26.90;99.90
12602;DHT22;30282;16.436;99.370;2023-12-20T14:31:16;26.90;99.90
12602;DHT22;30282;16.436;99.370;2023-12-20T14:33:48;26.90;99.90
12602;DHT22;30282;16.436;99.370;2023-12-20T14:36:19;26.90;99.90
12602;DHT22;30282;16.436;99.370;2023-12-20T14:38:48;26.90;99.90
12602;DHT22;30282;16.436;99.370;2023-12-20T14:41:17;26.90;99.90
12602;DHT22;30282;16.436;99.370;2023-12-20T14:43:46;26.90;99.90
12602;DHT22;30282;16.436;99.370;2023-12-20T14:46:15;26.70;99.90
12602;DHT22;30282;16.436;99.370;2023-12-20T14:48:44;26.50;99.90
12602;DHT22;30282;16.436;99.370;2023-12-20T14:51:19;26.40;99.90
12602;DHT22;30282;16.436;99.370;2023-12-20T14:53:49;26.30;99.90
12602;DHT22;30282;16.436;99.370;2023-12-20T14:56:20;26.20;99.90
12602;DHT22;30282;16.436;99.370;2023-12-20T14:58:54;26.30;99.90
12602;DHT22;30282;16.436;99.370;2023-12-20T15:01:24;26.30;99.90
12602;DHT22;30282;16.436;99.370;2023-12-20T15:03:53;26.30;99.90
12602;DHT22;30282;16.436;99.370;2023-12-20T15:06:24;26.30;99.90
12602;DHT22;30282;16.436;99.370;2023-12-20T15:08:53;26.30;99.90
12602;DHT22;30282;16.436;99.370;2023-12-20T15:11:25;26.20;99.90
12602;DHT22;30282;16.436;99.370;2023-12-20T15:13:56;26.20;99.90
12602;DHT22;30282;16.436;99.370;2023-12-20T15:16:27;26.20;99.90
12602;DHT22;30282;16.436;99.370;2023-12-20T15:18:56;26.20;99.90
12602;DHT22;30282;16.436;99.370;2023-12-20T15:21:26;26.20;99.90
12602;DHT22;30282;16.436;99.370;2023-12-20T15:23:59;26.20;99.90
12602;DHT22;30282;16.436;99.370;2023-12-20T15:26:40;26.20;99.90
12602;DHT22;30282;16.436;99.370;2023-12-20T15:29:09;26.20;99.90
12602;DHT22;30282;16.436;99.370;2023-12-20T15:31:43;26.10;99.90
12602;DHT22;30282;16.436;99.370;2023-12-20T15:34:12;26.00;99.90